createdAt,value
2022-09-15T00:01:01.240Z,14.38
2022-09-15T00:03:28.584Z,14.34
2022-09-15T00:05:55.825Z,14.36
2022-09-15T00:08:23.832Z,14.31
2022-09-15T00:11:18.912Z,14.34
2022-09-15T00:13:46.446Z,14.30
2022-09-15T00:16:15.400Z,14.28
2022-09-15T00:18:42.883Z,14.24
2022-09-15T00:21:13.027Z,14.20
2022-09-15T00:23:40.271Z,14.22
2022-09-15T00:26:12.756Z,14.24
2022-09-15T00:28:40.555Z,14.24
2022-09-15T00:31:10.147Z,14.23
2022-09-15T00:33:37.628Z,14.18
2022-09-15T00:36:06.879Z,14.19
2022-09-15T00:38:34.769Z,14.21
2022-09-15T00:41:02.850Z,14.13
2022-09-15T00:43:53.546Z,14.12
2022-09-15T00:46:23.831Z,14.02
2022-09-15T00:49:08.869Z,14.03
2022-09-15T00:51:52.829Z,13.96
2022-09-15T00:54:26.642Z,13.92
2022-09-15T00:56:55.421Z,13.89
2022-09-15T00:59:25.739Z,13.85
2022-09-15T01:02:01.421Z,13.81
2022-09-15T01:04:28.716Z,13.78
2022-09-15T01:07:00.272Z,13.71
2022-09-15T01:09:37.768Z,13.73
2022-09-15T01:12:05.260Z,13.67
2022-09-15T01:14:32.449Z,13.65
2022-09-15T01:17:07.220Z,13.60
2022-09-15T01:20:00.216Z,13.63
2022-09-15T01:22:33.615Z,13.59
2022-09-15T01:25:08.730Z,13.57
2022-09-15T01:28:09.985Z,13.52
2022-09-15T01:30:41.435Z,13.45
2022-09-15T01:33:22.412Z,13.49
2022-09-15T01:35:56.757Z,13.45
2022-09-15T01:39:02.642Z,13.44
2022-09-15T01:41:37.896Z,13.47
2022-09-15T01:44:24.499Z,13.49
2022-09-15T01:46:57.090Z,13.52
2022-09-15T01:49:29.194Z,13.57
2022-09-15T01:51:56.391Z,13.57
2022-09-15T01:54:28.708Z,13.57
2022-09-15T01:56:56.892Z,13.54
2022-09-15T01:59:24.190Z,13.53
2022-09-15T02:02:00.583Z,13.45
2022-09-15T02:04:33.689Z,13.39
2022-09-15T02:07:20.571Z,13.38
2022-09-15T02:10:05.535Z,13.33
2022-09-15T02:12:50.681Z,13.28
2022-09-15T02:15:33.488Z,13.31
2022-09-15T02:18:02.928Z,13.25
2022-09-15T02:20:48.505Z,13.30
2022-09-15T02:23:21.712Z,13.30
2022-09-15T02:25:51.692Z,13.32
2022-09-15T02:28:21.817Z,13.31
2022-09-15T02:30:49.937Z,13.19
2022-09-15T02:33:19.785Z,13.19
2022-09-15T02:35:47.517Z,13.28
2022-09-15T02:38:15.215Z,13.37
2022-09-15T02:40:44.437Z,13.44
2022-09-15T02:43:13.064Z,13.55
2022-09-15T02:45:40.479Z,13.54
2022-09-15T02:48:09.791Z,13.64
2022-09-15T02:50:37.372Z,13.67
2022-09-15T02:53:04.991Z,13.68
2022-09-15T02:55:32.439Z,13.67
2022-09-15T02:57:59.679Z,13.57
2022-09-15T03:00:28.366Z,13.51
2022-09-15T03:02:56.329Z,13.46
2022-09-15T03:05:30.583Z,13.37
2022-09-15T03:07:58.058Z,13.28
2022-09-15T03:10:26.098Z,13.23
2022-09-15T03:12:54.233Z,13.15
2022-09-15T03:15:23.926Z,13.08
2022-09-15T03:17:52.079Z,13.06
2022-09-15T03:20:21.579Z,13.03
2022-09-15T03:22:49.566Z,13.02
2022-09-15T03:25:17.516Z,12.99
2022-09-15T03:27:44.687Z,12.95
2022-09-15T03:30:15.693Z,12.90
2022-09-15T03:32:42.907Z,12.83
2022-09-15T03:35:10.318Z,12.81
2022-09-15T03:37:37.517Z,12.81
2022-09-15T03:40:05.437Z,12.79
2022-09-15T03:42:32.777Z,12.75
2022-09-15T03:44:59.946Z,12.71
2022-09-15T03:47:27.121Z,12.68
2022-09-15T03:49:55.336Z,12.64
2022-09-15T03:52:22.596Z,12.62
2022-09-15T03:54:49.840Z,12.55
2022-09-15T03:57:17.106Z,12.53
2022-09-15T03:59:44.366Z,12.51
2022-09-15T04:02:11.665Z,12.49
2022-09-15T04:04:38.917Z,12.50
2022-09-15T04:07:06.176Z,12.48
2022-09-15T04:09:33.394Z,12.47
2022-09-15T04:12:00.639Z,12.43
2022-09-15T04:14:27.854Z,12.45
2022-09-15T04:16:55.012Z,12.46
2022-09-15T04:19:22.224Z,12.47
2022-09-15T04:21:49.381Z,12.45
2022-09-15T04:24:17.211Z,12.41
2022-09-15T04:26:45.194Z,12.39
2022-09-15T04:29:14.792Z,12.29
2022-09-15T04:31:42.257Z,12.27
2022-09-15T04:34:10.128Z,12.24
2022-09-15T04:36:37.336Z,12.24
2022-09-15T04:39:06.089Z,12.27
2022-09-15T04:41:33.689Z,12.25
2022-09-15T04:44:00.868Z,12.32
2022-09-15T04:46:28.155Z,12.31
2022-09-15T04:48:56.476Z,12.32
2022-09-15T04:51:24.532Z,12.32
2022-09-15T04:53:52.299Z,12.37
2022-09-15T04:56:22.620Z,12.29
2022-09-15T04:59:03.141Z,12.37
2022-09-15T05:01:33.851Z,12.38
2022-09-15T05:04:04.166Z,12.39
2022-09-15T05:06:33.075Z,12.43
2022-09-15T05:09:00.347Z,12.53
2022-09-15T05:11:28.406Z,12.67
2022-09-15T05:13:55.766Z,12.78
2022-09-15T05:16:24.630Z,12.86
2022-09-15T05:18:53.140Z,12.87
2022-09-15T05:21:21.979Z,12.88
2022-09-15T05:23:50.247Z,12.90
2022-09-15T05:26:19.980Z,12.88
2022-09-15T05:28:47.192Z,12.88
2022-09-15T05:31:23.779Z,12.87
2022-09-15T05:33:53.238Z,13.02
2022-09-15T05:36:23.842Z,13.11
2022-09-15T05:38:51.666Z,13.21
2022-09-15T05:41:19.545Z,13.41
2022-09-15T05:43:48.072Z,13.52
2022-09-15T05:46:16.011Z,13.46
2022-09-15T05:48:43.638Z,13.50
2022-09-15T05:51:11.094Z,13.41
2022-09-15T05:53:40.096Z,13.43
2022-09-15T05:56:12.238Z,13.50
2022-09-15T05:58:41.381Z,13.51
2022-09-15T06:01:21.006Z,13.69
2022-09-15T06:03:48.850Z,13.93
2022-09-15T06:06:16.193Z,14.13
2022-09-15T06:08:48.272Z,14.36
2022-09-15T06:11:20.419Z,14.41
2022-09-15T06:13:48.350Z,14.53
2022-09-15T06:16:20.852Z,14.57
2022-09-15T06:18:49.256Z,14.69
2022-09-15T06:21:18.935Z,14.75
2022-09-15T06:23:50.728Z,14.84
2022-09-15T06:26:19.238Z,14.94
2022-09-15T06:28:57.943Z,15.04
2022-09-15T06:31:26.442Z,15.06
2022-09-15T06:33:56.214Z,15.24
2022-09-15T06:36:26.025Z,15.30
2022-09-15T06:38:53.611Z,15.44
2022-09-15T06:41:21.337Z,15.51
2022-09-15T06:43:49.457Z,15.77
2022-09-15T06:46:19.574Z,15.95
2022-09-15T06:48:48.811Z,16.19
2022-09-15T06:51:17.779Z,16.45
2022-09-15T06:53:45.553Z,16.54
2022-09-15T06:56:14.846Z,16.57
2022-09-15T06:58:42.453Z,16.39
2022-09-15T07:01:12.327Z,16.47
2022-09-15T07:03:41.056Z,16.47
2022-09-15T07:06:09.227Z,16.46
2022-09-15T07:08:36.728Z,16.51
2022-09-15T07:11:04.315Z,16.37
2022-09-15T07:13:31.572Z,16.39
2022-09-15T07:16:01.296Z,16.46
2022-09-15T07:18:28.631Z,16.61
2022-09-15T07:21:05.204Z,16.64
2022-09-15T07:23:33.554Z,16.51
2022-09-15T07:26:08.011Z,16.60
2022-09-15T07:28:35.630Z,16.66
2022-09-15T07:31:03.862Z,16.62
2022-09-15T07:33:31.273Z,16.68
2022-09-15T07:35:58.621Z,16.80
2022-09-15T07:38:27.158Z,16.80
2022-09-15T07:40:54.674Z,17.00
2022-09-15T07:43:21.865Z,17.13
2022-09-15T07:45:50.144Z,17.05
2022-09-15T07:48:17.425Z,17.09
2022-09-15T07:50:47.092Z,17.28
2022-09-15T07:53:14.393Z,17.36
2022-09-15T07:55:42.734Z,17.44
2022-09-15T07:58:09.960Z,17.37
2022-09-15T08:00:38.813Z,17.49
2022-09-15T08:03:06.334Z,17.71
2022-09-15T08:05:37.762Z,17.70
2022-09-15T08:08:06.816Z,17.79
2022-09-15T08:10:34.964Z,17.96
2022-09-15T08:13:02.191Z,18.04
2022-09-15T08:15:29.552Z,18.03
2022-09-15T08:17:56.716Z,18.17
2022-09-15T08:20:24.106Z,18.28
2022-09-15T08:22:51.347Z,18.34
2022-09-15T08:25:18.613Z,18.24
2022-09-15T08:27:45.843Z,18.33
2022-09-15T08:30:13.659Z,18.47
2022-09-15T08:32:40.864Z,18.65
2022-09-15T08:35:08.716Z,18.67
2022-09-15T08:37:35.972Z,18.74
2022-09-15T08:40:03.571Z,18.58
2022-09-15T08:42:31.405Z,18.45
2022-09-15T08:45:05.195Z,18.49
2022-09-15T08:47:36.326Z,18.37
2022-09-15T08:50:23.116Z,18.36
2022-09-15T08:53:03.733Z,18.37
2022-09-15T08:55:41.653Z,18.43
2022-09-15T08:58:15.109Z,18.48
2022-09-15T09:00:43.299Z,18.37
2022-09-15T09:03:35.483Z,18.30
2022-09-15T09:06:21.830Z,18.30
2022-09-15T09:09:06.359Z,18.21
2022-09-15T09:12:01.554Z,18.19
2022-09-15T09:14:50.682Z,18.43
2022-09-15T09:17:40.286Z,18.54
2022-09-15T09:20:38.668Z,18.57
2022-09-15T09:23:15.921Z,18.63
2022-09-15T09:25:44.325Z,18.76
2022-09-15T09:28:27.513Z,18.75
2022-09-15T09:30:57.259Z,18.76
2022-09-15T09:33:47.900Z,18.97
2022-09-15T09:36:15.428Z,19.00
2022-09-15T09:38:44.186Z,19.09
2022-09-15T09:41:25.522Z,19.26
2022-09-15T09:43:54.467Z,19.31
2022-09-15T09:46:22.235Z,19.22
2022-09-15T09:49:03.567Z,19.33
2022-09-15T09:51:37.210Z,19.42
2022-09-15T09:54:06.502Z,19.49
2022-09-15T09:56:35.340Z,19.60
2022-09-15T09:59:03.516Z,19.87
2022-09-15T10:01:31.117Z,19.96
2022-09-15T10:04:19.035Z,20.05
2022-09-15T10:06:46.681Z,20.17
2022-09-15T10:09:18.624Z,20.28
2022-09-15T10:12:00.135Z,20.25
2022-09-15T10:14:30.431Z,20.23
2022-09-15T10:17:06.731Z,20.42
2022-09-15T10:19:45.228Z,20.60
2022-09-15T10:22:31.601Z,20.62
2022-09-15T10:25:00.586Z,20.62
2022-09-15T10:27:35.676Z,20.56
2022-09-15T10:30:15.099Z,20.62
2022-09-15T10:32:43.253Z,20.59
2022-09-15T10:35:11.437Z,20.79
2022-09-15T10:38:02.269Z,20.93
2022-09-15T10:41:00.070Z,20.88
2022-09-15T10:43:54.614Z,21.03
2022-09-15T10:46:39.210Z,21.32
2022-09-15T10:49:29.191Z,21.57
2022-09-15T10:52:10.801Z,21.52
2022-09-15T10:54:55.847Z,21.50
2022-09-15T10:57:36.541Z,21.52
2022-09-15T11:00:11.951Z,21.59
2022-09-15T11:03:03.868Z,21.43
2022-09-15T11:05:42.331Z,21.53
2022-09-15T11:08:31.952Z,21.70
2022-09-15T11:11:15.766Z,21.69
2022-09-15T11:13:53.174Z,21.81
2022-09-15T11:16:41.128Z,21.90
2022-09-15T11:19:29.645Z,21.97
2022-09-15T11:22:01.323Z,22.03
2022-09-15T11:24:47.977Z,21.79
2022-09-15T11:27:26.268Z,21.95
2022-09-15T11:30:31.041Z,21.86
2022-09-15T11:33:07.417Z,21.71
2022-09-15T11:35:40.515Z,21.76
2022-09-15T11:38:29.351Z,21.69
2022-09-15T11:41:17.469Z,21.58
2022-09-15T11:44:17.126Z,21.58
2022-09-15T11:47:21.967Z,21.67
2022-09-15T11:49:55.161Z,21.80
2022-09-15T11:52:40.342Z,21.69
2022-09-15T11:55:43.018Z,21.61
2022-09-15T11:58:21.837Z,21.49
2022-09-15T12:01:03.495Z,21.28
2022-09-15T12:03:38.103Z,21.14
2022-09-15T12:06:13.425Z,21.02
2022-09-15T12:08:44.400Z,21.03
2022-09-15T12:11:21.441Z,20.86
2022-09-15T12:13:49.130Z,20.87
2022-09-15T12:16:17.073Z,20.88
2022-09-15T12:19:02.132Z,20.83
2022-09-15T12:22:04.529Z,21.01
2022-09-15T12:24:42.169Z,20.94
2022-09-15T12:27:15.958Z,20.83
2022-09-15T12:29:55.523Z,20.68
2022-09-15T12:32:35.421Z,20.78
2022-09-15T12:35:18.002Z,20.78
2022-09-15T12:37:54.734Z,20.70
2022-09-15T12:40:35.522Z,20.78
2022-09-15T12:43:04.672Z,20.57
2022-09-15T12:45:33.571Z,20.47
2022-09-15T12:51:14.380Z,20.53
2022-09-15T12:53:55.700Z,20.59
2022-09-15T12:56:28.029Z,20.58
2022-09-15T13:01:51.357Z,20.23
2022-09-15T13:04:56.532Z,20.32
2022-09-15T13:07:33.469Z,20.28
2022-09-15T13:10:10.797Z,20.21
2022-09-15T13:12:43.386Z,20.15
2022-09-15T13:15:14.913Z,20.04
2022-09-15T13:17:44.584Z,19.94
2022-09-15T13:20:18.019Z,19.90
2022-09-15T13:22:49.297Z,19.84
2022-09-15T13:25:19.991Z,19.84
2022-09-15T13:27:50.633Z,19.76
2022-09-15T13:30:39.734Z,19.72
2022-09-15T13:33:10.871Z,19.69
2022-09-15T13:36:13.280Z,19.57
2022-09-15T13:39:05.617Z,19.62
2022-09-15T13:41:51.757Z,19.55
2022-09-15T13:44:46.087Z,19.52
2022-09-15T13:47:18.615Z,19.42
2022-09-15T13:50:09.744Z,19.31
2022-09-15T13:52:55.086Z,19.30
2022-09-15T13:55:28.385Z,19.41
2022-09-15T14:00:49.321Z,19.63
2022-09-15T14:03:21.301Z,19.71
2022-09-15T14:05:51.200Z,19.80
2022-09-15T14:08:23.113Z,19.91
2022-09-15T14:11:05.550Z,19.93
2022-09-15T14:13:36.241Z,19.85
2022-09-15T14:16:23.787Z,19.77
2022-09-15T14:18:53.135Z,19.84
2022-09-15T14:21:23.136Z,19.80
2022-09-15T14:23:52.367Z,19.69
2022-09-15T14:26:26.121Z,19.61
2022-09-15T14:28:59.816Z,19.67
2022-09-15T14:31:49.543Z,19.64
2022-09-15T14:34:51.779Z,19.44
2022-09-15T14:37:29.426Z,19.27
2022-09-15T14:39:59.247Z,19.18
2022-09-15T14:42:32.498Z,18.99
2022-09-15T14:46:02.363Z,18.81
2022-09-15T14:48:28.422Z,18.69
2022-09-15T14:51:09.069Z,18.59
2022-09-15T14:53:41.189Z,18.50
2022-09-15T14:56:23.585Z,18.52
2022-09-15T14:58:57.321Z,18.41
2022-09-15T15:01:37.066Z,18.43
2022-09-15T15:04:19.892Z,18.42
2022-09-15T15:07:10.152Z,18.48
2022-09-15T15:09:39.847Z,18.47
2022-09-15T15:12:13.147Z,18.53
2022-09-15T15:14:44.063Z,18.45
2022-09-15T15:17:24.215Z,18.56
2022-09-15T15:19:59.384Z,18.65
2022-09-15T15:22:27.425Z,18.73
2022-09-15T15:24:54.820Z,18.78
2022-09-15T15:27:34.350Z,18.83
2022-09-15T15:30:30.934Z,18.80
2022-09-15T15:33:05.447Z,18.89
2022-09-15T15:35:33.572Z,18.87
2022-09-15T15:38:19.456Z,18.84
2022-09-15T15:47:13.142Z,18.39
2022-09-15T15:50:02.359Z,18.17
2022-09-15T15:52:29.595Z,17.74
2022-09-15T15:54:56.851Z,17.63
2022-09-15T15:57:40.015Z,17.42
2022-09-15T16:00:53.358Z,17.23
2022-09-15T16:03:21.858Z,17.23
2022-09-15T16:05:54.454Z,17.28
2022-09-15T16:18:53.708Z,17.40
2022-09-15T16:21:37.054Z,17.32
2022-09-15T16:24:11.827Z,17.37
2022-09-15T16:26:39.705Z,17.39
2022-09-15T16:29:07.752Z,17.38
2022-09-15T16:31:36.386Z,17.33
2022-09-15T16:34:04.185Z,17.38
2022-09-15T16:36:37.658Z,17.40
2022-09-15T16:39:11.636Z,17.30
2022-09-15T16:41:41.443Z,17.37
2022-09-15T16:44:27.577Z,17.30
2022-09-15T16:46:55.039Z,17.23
2022-09-15T16:49:23.529Z,17.20
2022-09-15T16:51:51.850Z,16.99
2022-09-15T16:54:21.509Z,16.67
2022-09-15T16:56:48.825Z,16.52
2022-09-15T16:59:16.266Z,16.46
2022-09-15T17:01:43.922Z,16.43
2022-09-15T17:04:16.693Z,16.33
2022-09-15T17:06:44.270Z,16.30
2022-09-15T17:09:13.928Z,16.34
2022-09-15T17:11:42.484Z,16.35
2022-09-15T17:14:14.053Z,16.33
2022-09-15T17:16:41.627Z,16.32
2022-09-15T17:19:08.851Z,16.32
2022-09-15T17:21:36.503Z,16.24
2022-09-15T17:24:03.962Z,16.16
2022-09-15T17:26:31.802Z,16.01
2022-09-15T17:28:59.096Z,15.95
2022-09-15T17:31:28.908Z,15.89
2022-09-15T17:33:58.118Z,15.80
2022-09-15T17:36:26.544Z,15.58
2022-09-15T17:38:53.968Z,15.46
2022-09-15T17:41:24.558Z,15.41
2022-09-15T17:43:52.039Z,15.33
2022-09-15T17:46:19.894Z,15.40
2022-09-15T17:48:48.607Z,15.46
2022-09-15T17:51:22.240Z,15.45
2022-09-15T17:54:37.638Z,15.53
2022-09-15T18:00:14.777Z,15.40
2022-09-15T18:02:48.665Z,15.36
2022-09-15T18:05:31.649Z,15.34
2022-09-15T18:08:11.353Z,15.36
2022-09-15T18:10:40.641Z,15.32
2022-09-15T18:13:15.605Z,15.10
2022-09-15T18:15:43.641Z,15.21
2022-09-15T18:18:14.981Z,15.22
2022-09-15T18:20:42.546Z,15.13
2022-09-15T18:23:14.881Z,15.13
2022-09-15T18:25:42.702Z,15.03
2022-09-15T18:28:10.058Z,14.90
2022-09-15T18:30:43.218Z,14.79
2022-09-15T18:33:16.706Z,14.56
2022-09-15T18:35:44.992Z,14.49
2022-09-15T18:38:13.382Z,14.39
2022-09-15T18:40:51.579Z,14.35
2022-09-15T18:43:21.493Z,14.29
2022-09-15T18:45:49.725Z,14.16
2022-09-15T18:48:26.895Z,14.21
2022-09-15T18:50:55.220Z,14.30
2022-09-15T18:53:23.326Z,14.25
2022-09-15T18:55:51.100Z,14.40
2022-09-15T18:58:20.417Z,14.39
2022-09-15T19:00:48.559Z,14.48
2022-09-15T19:03:16.276Z,14.53
2022-09-15T19:05:43.591Z,14.61
2022-09-15T19:08:11.570Z,14.71
2022-09-15T19:10:41.656Z,14.74
2022-09-15T19:13:11.484Z,14.73
2022-09-15T19:15:43.926Z,14.80
2022-09-15T19:18:11.421Z,14.81
2022-09-15T19:20:38.851Z,14.81
2022-09-15T19:23:07.692Z,14.80
2022-09-15T19:25:35.325Z,14.73
2022-09-15T19:28:06.302Z,14.71
2022-09-15T19:30:44.621Z,14.71
2022-09-15T19:33:20.332Z,14.66
2022-09-15T19:35:56.277Z,14.74
2022-09-15T19:38:36.300Z,14.72
2022-09-15T19:41:16.141Z,14.70
2022-09-15T19:43:54.080Z,14.76
2022-09-15T19:46:25.372Z,14.73
2022-09-15T19:48:58.347Z,14.74
2022-09-15T19:51:26.339Z,14.61
2022-09-15T19:53:55.839Z,14.62
2022-09-15T19:56:26.159Z,14.67
2022-09-15T19:58:56.206Z,14.57
2022-09-15T20:01:25.906Z,14.58
2022-09-15T20:03:54.692Z,14.47
2022-09-15T20:06:22.312Z,14.37
2022-09-15T20:08:53.415Z,14.38
2022-09-15T20:11:22.763Z,14.32
2022-09-15T20:13:50.201Z,14.27
2022-09-15T20:16:19.037Z,14.10
2022-09-15T20:18:48.060Z,14.10
2022-09-15T20:21:32.418Z,14.11
2022-09-15T20:24:01.717Z,14.09
2022-09-15T20:26:31.602Z,14.11
2022-09-15T20:29:02.989Z,14.07
2022-09-15T20:31:36.053Z,13.97
2022-09-15T20:34:03.394Z,13.93
2022-09-15T20:36:36.565Z,13.89
2022-09-15T20:39:09.340Z,13.95
2022-09-15T20:41:37.238Z,13.98
2022-09-15T20:44:06.143Z,14.01
2022-09-15T20:46:50.639Z,14.01
2022-09-15T20:49:18.120Z,13.90
2022-09-15T20:51:45.455Z,13.94
2022-09-15T20:54:12.922Z,13.96
2022-09-15T20:56:40.359Z,13.89
2022-09-15T20:59:10.530Z,13.79
2022-09-15T21:01:39.145Z,13.78
2022-09-15T21:04:08.952Z,13.77
2022-09-15T21:06:36.604Z,13.66
2022-09-15T21:09:05.213Z,13.71
2022-09-15T21:11:32.864Z,13.82
2022-09-15T21:14:00.338Z,13.83
2022-09-15T21:16:28.722Z,13.87
2022-09-15T21:18:57.593Z,13.80
2022-09-15T21:21:27.306Z,13.90
2022-09-15T21:24:01.179Z,13.93
2022-09-15T21:26:30.799Z,13.92
2022-09-15T21:28:58.076Z,13.91
2022-09-15T21:31:35.525Z,13.89
2022-09-15T21:34:02.789Z,13.91
2022-09-15T21:36:31.872Z,13.92
2022-09-15T21:39:06.290Z,13.96
2022-09-15T21:41:33.562Z,13.99
2022-09-15T21:44:01.176Z,14.04
2022-09-15T21:46:30.211Z,13.94
2022-09-15T21:48:58.840Z,13.94
2022-09-15T21:51:33.673Z,13.82
2022-09-15T21:54:01.275Z,13.74
2022-09-15T21:56:31.300Z,13.69
2022-09-15T21:59:01.204Z,13.51
2022-09-15T22:01:30.750Z,13.50
2022-09-15T22:04:05.738Z,13.36
2022-09-15T22:06:40.881Z,13.34
2022-09-15T22:09:10.399Z,13.48
2022-09-15T22:11:37.821Z,13.61
2022-09-15T22:14:09.834Z,13.66
2022-09-15T22:16:38.892Z,13.77
2022-09-15T22:19:09.763Z,13.79
2022-09-15T22:21:41.666Z,13.68
2022-09-15T22:24:11.241Z,13.72
2022-09-15T22:26:38.512Z,13.69
2022-09-15T22:29:06.554Z,13.58
2022-09-15T22:31:34.158Z,13.61
2022-09-15T22:34:01.536Z,13.63
2022-09-15T22:36:30.395Z,13.61
2022-09-15T22:39:05.341Z,13.57
2022-09-15T22:41:35.227Z,13.63
2022-09-15T22:44:03.238Z,13.69
2022-09-15T22:46:30.571Z,13.82
2022-09-15T22:48:58.536Z,13.79
2022-09-15T22:51:25.878Z,13.73
2022-09-15T22:53:54.733Z,13.54
2022-09-15T22:56:23.364Z,13.47
2022-09-15T22:58:52.903Z,13.38
2022-09-15T23:01:22.610Z,13.31
2022-09-15T23:03:51.521Z,13.24
2022-09-15T23:06:19.764Z,13.19
2022-09-15T23:08:51.714Z,13.06
2022-09-15T23:11:19.194Z,12.99
2022-09-15T23:13:48.529Z,13.00
2022-09-15T23:16:16.283Z,12.88
2022-09-15T23:18:43.673Z,12.78
2022-09-15T23:21:12.276Z,12.90
2022-09-15T23:23:41.429Z,12.77
2022-09-15T23:26:10.273Z,12.71
2022-09-15T23:28:39.089Z,12.65
2022-09-15T23:31:06.822Z,12.59
2022-09-15T23:33:37.468Z,12.63
2022-09-15T23:36:07.254Z,12.55
2022-09-15T23:38:38.846Z,12.49
2022-09-15T23:41:07.184Z,12.50
2022-09-15T23:43:34.853Z,12.46
2022-09-15T23:46:02.097Z,12.43
2022-09-15T23:48:31.512Z,12.37
2022-09-15T23:50:59.086Z,12.35
2022-09-15T23:53:26.725Z,12.37
2022-09-15T23:55:57.115Z,12.33
2022-09-15T23:58:24.906Z,12.27
